createdAt,value
2018-05-06T00:01:52.916Z,11.90
2018-05-06T00:04:20.693Z,11.90
2018-05-06T00:06:48.326Z,11.90
2018-05-06T00:09:16.121Z,11.90
2018-05-06T00:11:43.910Z,11.90
2018-05-06T00:14:11.584Z,11.90
2018-05-06T00:16:40.020Z,11.80
2018-05-06T00:19:10.687Z,11.80
2018-05-06T00:21:38.362Z,11.80
2018-05-06T00:24:06.885Z,11.70
2018-05-06T00:26:34.554Z,11.70
2018-05-06T00:29:02.350Z,11.70
2018-05-06T00:31:30.019Z,11.70
2018-05-06T00:33:57.724Z,11.70
2018-05-06T00:36:25.398Z,11.70
2018-05-06T00:38:53.163Z,11.80
2018-05-06T00:41:20.875Z,11.80
2018-05-06T00:43:48.590Z,11.70
2018-05-06T00:46:16.365Z,11.70
2018-05-06T00:48:44.048Z,11.70
2018-05-06T00:51:11.726Z,11.70
2018-05-06T00:53:39.446Z,11.70
2018-05-06T00:56:07.221Z,11.60
2018-05-06T00:58:34.903Z,11.50
2018-05-06T01:01:02.590Z,11.50
2018-05-06T01:03:30.305Z,11.60
2018-05-06T01:05:57.970Z,11.50
2018-05-06T01:08:25.726Z,11.50
2018-05-06T01:10:53.398Z,11.60
2018-05-06T01:13:21.127Z,11.40
2018-05-06T01:15:49.571Z,11.30
2018-05-06T01:18:17.310Z,11.30
2018-05-06T01:20:44.979Z,11.30
2018-05-06T01:23:12.657Z,11.20
2018-05-06T01:25:40.349Z,11.20
2018-05-06T01:28:08.041Z,11.20
2018-05-06T01:30:35.825Z,11.20
2018-05-06T01:33:03.548Z,11.20
2018-05-06T01:35:32.083Z,11.10
2018-05-06T01:37:59.762Z,11.00
2018-05-06T01:40:27.494Z,11.10
2018-05-06T01:42:55.163Z,11.20
2018-05-06T01:45:22.928Z,11.10
2018-05-06T01:47:50.698Z,11.10
2018-05-06T01:50:18.390Z,11.00
2018-05-06T01:52:46.124Z,11.00
2018-05-06T01:55:13.810Z,11.00
2018-05-06T01:57:41.485Z,11.00
2018-05-06T02:00:09.171Z,11.00
2018-05-06T02:02:37.607Z,10.90
2018-05-06T02:05:05.295Z,10.80
2018-05-06T02:07:34.478Z,10.80
2018-05-06T02:10:02.251Z,10.80
2018-05-06T02:12:29.926Z,10.80
2018-05-06T02:14:57.651Z,10.80
2018-05-06T02:17:25.336Z,10.80
2018-05-06T02:19:53.006Z,10.80
2018-05-06T02:22:20.763Z,10.80
2018-05-06T02:24:48.429Z,10.70
2018-05-06T02:27:16.186Z,10.70
2018-05-06T02:29:43.866Z,10.70
2018-05-06T02:32:11.538Z,10.70
2018-05-06T02:34:39.245Z,10.60
2018-05-06T02:37:06.934Z,10.50
2018-05-06T02:39:34.716Z,10.40
2018-05-06T02:42:02.472Z,10.40
2018-05-06T02:44:30.142Z,10.30
2018-05-06T02:46:57.843Z,10.20
2018-05-06T02:49:26.352Z,10.30
2018-05-06T02:51:53.971Z,10.20
2018-05-06T02:54:21.647Z,10.30
2018-05-06T02:56:50.098Z,10.20
2018-05-06T02:59:17.772Z,10.20
2018-05-06T03:01:45.458Z,10.20
2018-05-06T03:04:13.895Z,10.30
2018-05-06T03:06:41.634Z,10.30
2018-05-06T03:09:09.429Z,10.40
2018-05-06T03:11:37.089Z,10.30
2018-05-06T03:14:04.762Z,10.20
2018-05-06T03:16:32.474Z,10.30
2018-05-06T03:19:00.261Z,10.40
2018-05-06T03:21:27.970Z,10.40
2018-05-06T03:23:55.643Z,10.40
2018-05-06T03:26:24.134Z,10.30
2018-05-06T03:28:52.562Z,10.30
2018-05-06T03:31:20.280Z,10.30
2018-05-06T03:33:48.818Z,10.30
2018-05-06T03:36:16.497Z,10.30
2018-05-06T03:38:44.165Z,10.30
2018-05-06T03:41:11.870Z,10.20
2018-05-06T03:43:39.545Z,10.20
2018-05-06T03:46:07.241Z,10.20
2018-05-06T03:48:34.967Z,10.10
2018-05-06T03:51:02.743Z,10.20
2018-05-06T03:53:30.425Z,10.20
2018-05-06T03:56:19.063Z,10.20
2018-05-06T03:58:53.163Z,10.20
2018-05-06T04:01:20.851Z,10.20
2018-05-06T04:03:48.523Z,10.20
2018-05-06T04:06:16.207Z,10.20
2018-05-06T04:08:43.883Z,10.30
2018-05-06T04:11:12.398Z,10.40
2018-05-06T04:13:40.072Z,10.40
2018-05-06T04:16:07.772Z,10.40
2018-05-06T04:18:35.533Z,10.50
2018-05-06T04:21:03.275Z,10.50
2018-05-06T04:23:30.964Z,10.50
2018-05-06T04:25:58.701Z,10.60
2018-05-06T04:28:26.472Z,10.60
2018-05-06T04:30:54.138Z,10.70
2018-05-06T04:33:21.827Z,10.70
2018-05-06T04:35:49.499Z,10.80
2018-05-06T04:38:17.960Z,11.00
2018-05-06T04:40:45.822Z,10.90
2018-05-06T04:43:13.490Z,11.00
2018-05-06T04:45:41.151Z,11.10
2018-05-06T04:48:10.356Z,11.20
2018-05-06T04:50:38.020Z,11.20
2018-05-06T04:53:05.771Z,11.20
2018-05-06T04:55:33.432Z,11.20
2018-05-06T04:58:01.206Z,11.30
2018-05-06T05:00:28.967Z,11.30
2018-05-06T05:02:56.725Z,11.40
2018-05-06T05:05:24.387Z,11.50
2018-05-06T05:07:52.135Z,11.50
2018-05-06T05:10:19.895Z,11.60
2018-05-06T05:12:47.586Z,11.60
2018-05-06T05:15:15.955Z,11.70
2018-05-06T05:17:43.642Z,11.80
2018-05-06T05:20:11.336Z,11.90
2018-05-06T05:22:39.795Z,12.00
2018-05-06T05:25:07.560Z,12.00
2018-05-06T05:27:35.329Z,12.00
2018-05-06T05:30:03.078Z,12.10
2018-05-06T05:32:31.557Z,12.20
2018-05-06T05:34:59.241Z,12.20
2018-05-06T05:37:26.946Z,12.20
2018-05-06T05:39:54.603Z,12.30
2018-05-06T05:42:22.303Z,12.40
2018-05-06T05:44:49.962Z,12.50
2018-05-06T05:47:17.654Z,12.40
2018-05-06T05:49:45.439Z,12.50
2018-05-06T05:52:13.186Z,12.50
2018-05-06T05:54:40.860Z,12.60
2018-05-06T05:57:08.559Z,12.70
2018-05-06T05:59:37.029Z,12.90
2018-05-06T06:02:04.704Z,12.90
2018-05-06T06:04:33.231Z,13.00
2018-05-06T06:07:00.991Z,13.00
2018-05-06T06:09:28.691Z,13.00
2018-05-06T06:11:56.358Z,13.10
2018-05-06T06:14:24.815Z,13.30
2018-05-06T06:16:52.595Z,13.20
2018-05-06T06:19:20.332Z,13.40
2018-05-06T06:21:48.095Z,13.40
2018-05-06T06:24:15.786Z,13.50
2018-05-06T06:26:43.524Z,13.70
2018-05-06T06:29:11.215Z,13.70
2018-05-06T06:31:38.960Z,13.80
2018-05-06T06:34:06.642Z,13.90
2018-05-06T06:36:34.387Z,14.00
2018-05-06T06:39:02.071Z,14.10
2018-05-06T06:41:29.747Z,14.10
2018-05-06T06:43:57.455Z,14.20
2018-05-06T06:46:25.114Z,14.30
2018-05-06T06:48:52.926Z,14.40
2018-05-06T06:51:20.572Z,14.50
2018-05-06T06:53:48.254Z,14.60
2018-05-06T06:56:15.932Z,14.80
2018-05-06T06:58:43.627Z,14.90
2018-05-06T07:01:12.064Z,15.20
2018-05-06T07:03:39.782Z,15.20
2018-05-06T07:06:07.447Z,15.30
2018-05-06T07:08:35.147Z,15.30
2018-05-06T07:11:02.915Z,15.40
2018-05-06T07:13:30.572Z,15.60
2018-05-06T07:15:58.247Z,15.60
2018-05-06T07:18:25.989Z,15.70
2018-05-06T07:20:53.665Z,15.80
2018-05-06T07:23:21.441Z,16.00
2018-05-06T07:25:49.199Z,16.00
2018-05-06T07:28:16.911Z,16.10
2018-05-06T07:30:44.611Z,16.20
2018-05-06T07:33:12.373Z,16.30
2018-05-06T07:35:40.060Z,16.30
2018-05-06T07:38:07.757Z,16.40
2018-05-06T07:40:36.209Z,16.70
2018-05-06T07:43:03.912Z,16.70
2018-05-06T07:45:32.366Z,16.70
2018-05-06T07:48:00.088Z,16.70
2018-05-06T07:50:27.846Z,16.80
2018-05-06T07:52:55.523Z,16.80
2018-05-06T07:55:23.229Z,16.90
2018-05-06T07:57:50.907Z,17.10
2018-05-06T08:00:18.702Z,17.10
2018-05-06T08:02:46.365Z,17.20
2018-05-06T08:05:14.063Z,17.20
2018-05-06T08:07:41.802Z,17.30
2018-05-06T08:10:09.500Z,17.50
2018-05-06T08:12:37.159Z,17.60
2018-05-06T08:15:04.855Z,17.80
2018-05-06T08:17:32.541Z,17.90
2018-05-06T08:20:00.231Z,18.00
2018-05-06T08:22:27.906Z,18.00
2018-05-06T08:24:55.613Z,18.10
2018-05-06T08:27:23.276Z,18.20
2018-05-06T08:29:51.070Z,18.30
2018-05-06T08:32:18.952Z,18.30
2018-05-06T08:34:46.627Z,18.30
2018-05-06T08:37:14.290Z,18.30
2018-05-06T08:39:42.180Z,18.30
2018-05-06T08:42:09.863Z,18.40
2018-05-06T08:44:37.563Z,18.60
2018-05-06T08:47:05.998Z,18.80
2018-05-06T08:49:33.735Z,18.80
2018-05-06T08:52:01.431Z,19.00
2018-05-06T08:54:29.114Z,19.00
2018-05-06T08:56:56.859Z,19.00
2018-05-06T08:59:24.600Z,19.10
2018-05-06T09:01:52.301Z,19.30
2018-05-06T09:04:20.013Z,19.30
2018-05-06T09:06:47.699Z,19.20
2018-05-06T09:09:15.387Z,19.20
2018-05-06T09:11:43.078Z,19.40
2018-05-06T09:14:10.742Z,19.30
2018-05-06T09:16:38.426Z,19.20
2018-05-06T09:19:06.190Z,19.30
2018-05-06T09:21:33.958Z,19.40
2018-05-06T09:24:01.655Z,19.50
2018-05-06T09:26:29.347Z,19.50
2018-05-06T09:28:57.868Z,19.50
2018-05-06T09:31:25.554Z,19.50
2018-05-06T09:33:53.259Z,19.40
2018-05-06T09:36:21.782Z,19.30
2018-05-06T09:38:49.456Z,19.30
2018-05-06T09:41:17.147Z,19.30
2018-05-06T09:43:44.823Z,19.50
2018-05-06T09:46:13.273Z,19.60
2018-05-06T09:48:41.008Z,19.60
2018-05-06T09:51:08.696Z,19.30
2018-05-06T09:53:36.467Z,19.40
2018-05-06T09:56:04.170Z,19.20
2018-05-06T09:58:32.680Z,19.30
2018-05-06T10:01:00.443Z,19.30
2018-05-06T10:03:28.253Z,19.50
2018-05-06T10:05:55.934Z,19.80
2018-05-06T10:08:23.606Z,20.00
2018-05-06T10:10:52.050Z,20.20
2018-05-06T10:13:19.810Z,20.20
2018-05-06T10:15:47.562Z,20.20
2018-05-06T10:18:15.197Z,20.40
2018-05-06T10:20:42.853Z,20.60
2018-05-06T10:23:11.367Z,20.70
2018-05-06T10:25:39.030Z,20.70
2018-05-06T10:28:06.844Z,20.80
2018-05-06T10:30:34.572Z,20.80
2018-05-06T10:33:02.288Z,20.70
2018-05-06T10:35:30.726Z,20.40
2018-05-06T10:37:58.414Z,20.40
2018-05-06T10:40:26.137Z,20.30
2018-05-06T10:42:53.903Z,20.50
2018-05-06T10:45:21.662Z,20.80
2018-05-06T10:47:49.359Z,21.00
2018-05-06T10:50:17.030Z,21.20
2018-05-06T10:52:44.730Z,21.10
2018-05-06T10:55:12.394Z,20.90
2018-05-06T10:57:40.179Z,20.70
2018-05-06T11:00:07.854Z,20.70
2018-05-06T11:02:35.564Z,20.70
2018-05-06T11:05:04.086Z,21.10
2018-05-06T11:07:31.779Z,21.00
2018-05-06T11:09:59.528Z,21.30
2018-05-06T11:12:27.215Z,21.30
2018-05-06T11:14:54.886Z,21.30
2018-05-06T11:17:22.581Z,21.40
2018-05-06T11:19:50.251Z,21.60
2018-05-06T11:22:18.056Z,21.50
2018-05-06T11:24:45.728Z,21.80
2018-05-06T11:27:13.459Z,21.80
2018-05-06T11:29:41.139Z,21.60
2018-05-06T11:32:08.850Z,21.70
2018-05-06T11:34:37.391Z,21.30
2018-05-06T11:37:05.142Z,21.20
2018-05-06T11:39:32.815Z,21.20
2018-05-06T11:42:00.522Z,21.40
2018-05-06T11:44:28.967Z,21.90
2018-05-06T11:46:56.674Z,21.90
2018-05-06T11:49:25.186Z,22.10
2018-05-06T11:51:52.890Z,22.10
2018-05-06T11:54:20.583Z,22.20
2018-05-06T11:56:49.029Z,22.60
2018-05-06T11:59:16.715Z,22.60
2018-05-06T12:01:45.184Z,22.50
2018-05-06T12:04:12.886Z,22.40
2018-05-06T12:06:41.315Z,22.80
2018-05-06T12:09:09.002Z,22.80
2018-05-06T12:11:36.685Z,23.00
2018-05-06T12:14:05.233Z,26.30
2018-05-06T12:16:32.872Z,26.20
2018-05-06T12:19:00.568Z,28.30
2018-05-06T12:21:28.283Z,30.40
2018-05-06T12:23:56.112Z,29.90
2018-05-06T12:26:23.749Z,31.30
2018-05-06T12:28:51.480Z,33.30
2018-05-06T12:31:19.143Z,35.50
2018-05-06T12:33:46.939Z,34.90
2018-05-06T12:36:14.612Z,35.60
2018-05-06T12:38:42.327Z,35.00
2018-05-06T12:41:10.002Z,36.40
2018-05-06T12:43:37.707Z,37.10
2018-05-06T12:46:05.432Z,37.10
2018-05-06T12:48:33.208Z,35.70
2018-05-06T12:51:00.890Z,34.10
2018-05-06T12:53:28.571Z,32.80
2018-05-06T12:55:57.065Z,36.10
2018-05-06T12:58:25.613Z,37.70
2018-05-06T13:00:53.351Z,37.60
2018-05-06T13:03:21.046Z,37.30
2018-05-06T13:05:49.594Z,38.30
2018-05-06T13:08:17.271Z,38.30
2018-05-06T13:10:46.547Z,39.10
2018-05-06T13:13:14.251Z,39.10
2018-05-06T13:15:42.790Z,39.30
2018-05-06T13:18:10.539Z,39.30
2018-05-06T13:20:38.306Z,38.00
2018-05-06T13:23:05.983Z,38.70
2018-05-06T13:25:33.698Z,37.50
2018-05-06T13:28:02.135Z,36.80
2018-05-06T13:30:29.887Z,36.70
2018-05-06T13:32:57.550Z,37.00
2018-05-06T13:35:25.333Z,37.80
2018-05-06T13:37:53.080Z,37.00
2018-05-06T13:40:20.767Z,36.80
2018-05-06T13:42:48.537Z,37.40
2018-05-06T13:45:16.195Z,37.10
2018-05-06T13:47:43.862Z,37.80
2018-05-06T13:50:11.623Z,36.80
2018-05-06T13:52:40.071Z,37.10
2018-05-06T13:55:07.750Z,37.00
2018-05-06T13:57:35.436Z,36.70
2018-05-06T14:00:03.190Z,35.80
2018-05-06T14:02:30.847Z,35.70
2018-05-06T14:04:58.535Z,35.30
2018-05-06T14:07:26.248Z,34.20
2018-05-06T14:09:54.017Z,34.50
2018-05-06T14:12:21.683Z,34.40
2018-05-06T14:14:49.446Z,35.40
2018-05-06T14:17:17.135Z,35.60
2018-05-06T14:19:44.826Z,35.40
2018-05-06T14:22:13.271Z,35.20
2018-05-06T14:24:40.959Z,35.10
2018-05-06T14:27:10.223Z,35.00
2018-05-06T14:29:37.909Z,35.00
2018-05-06T14:32:05.646Z,35.10
2018-05-06T14:34:33.439Z,35.20
2018-05-06T14:37:01.178Z,36.00
2018-05-06T14:39:28.876Z,34.90
2018-05-06T14:41:56.528Z,35.60
2018-05-06T14:44:24.277Z,35.10
2018-05-06T14:46:57.872Z,35.90
2018-05-06T14:49:25.571Z,36.20
2018-05-06T14:51:53.297Z,36.00
2018-05-06T14:54:20.987Z,35.20
2018-05-06T14:56:48.720Z,35.10
2018-05-06T14:59:16.415Z,35.20
2018-05-06T15:01:44.103Z,35.30
2018-05-06T15:04:12.633Z,35.00
2018-05-06T15:06:40.425Z,35.00
2018-05-06T15:09:08.099Z,34.40
2018-05-06T15:11:35.853Z,35.10
2018-05-06T15:14:03.605Z,34.40
2018-05-06T15:16:31.382Z,33.70
2018-05-06T15:18:59.064Z,34.20
2018-05-06T15:21:26.731Z,34.50
2018-05-06T15:23:54.585Z,35.00
2018-05-06T15:26:22.274Z,35.10
2018-05-06T15:28:50.730Z,34.40
2018-05-06T15:31:18.462Z,34.40
2018-05-06T15:33:46.127Z,34.20
2018-05-06T15:36:13.810Z,32.90
2018-05-06T15:38:41.552Z,34.10
2018-05-06T15:41:09.254Z,33.80
2018-05-06T15:43:37.007Z,33.70
2018-05-06T15:46:04.663Z,34.20
2018-05-06T15:48:32.336Z,33.20
2018-05-06T15:51:00.032Z,32.80
2018-05-06T15:53:28.483Z,32.60
2018-05-06T15:55:56.188Z,32.50
2018-05-06T15:58:24.643Z,32.60
2018-05-06T16:00:52.335Z,32.60
2018-05-06T16:03:25.858Z,32.00
2018-05-06T16:05:53.625Z,30.70
2018-05-06T16:08:21.294Z,31.10
2018-05-06T16:10:48.973Z,31.50
2018-05-06T16:13:16.718Z,32.20
2018-05-06T16:15:44.491Z,32.40
2018-05-06T16:18:12.188Z,32.50
2018-05-06T16:20:39.854Z,32.30
2018-05-06T16:23:07.547Z,32.50
2018-05-06T16:25:35.265Z,32.60
2018-05-06T16:28:03.012Z,32.50
2018-05-06T16:30:30.665Z,32.30
2018-05-06T16:32:58.350Z,32.00
2018-05-06T16:35:26.091Z,32.20
2018-05-06T16:37:53.864Z,32.00
2018-05-06T16:40:21.513Z,31.60
2018-05-06T16:42:49.200Z,31.70
2018-05-06T16:45:16.970Z,32.00
2018-05-06T16:47:44.716Z,31.60
2018-05-06T16:50:12.410Z,31.80
2018-05-06T16:52:40.157Z,31.70
2018-05-06T16:55:07.827Z,31.60
2018-05-06T16:57:35.539Z,31.40
2018-05-06T17:00:03.974Z,31.00
2018-05-06T17:02:31.684Z,30.90
2018-05-06T17:04:59.399Z,31.00
2018-05-06T17:07:27.088Z,30.60
2018-05-06T17:09:54.750Z,29.90
2018-05-06T17:12:22.474Z,29.90
2018-05-06T17:14:50.142Z,29.70
2018-05-06T17:17:17.890Z,29.50
2018-05-06T17:19:45.727Z,29.60
2018-05-06T17:22:13.329Z,29.80
2018-05-06T17:24:41.261Z,29.80
2018-05-06T17:27:08.932Z,29.90
2018-05-06T17:29:36.619Z,29.70
2018-05-06T17:32:04.291Z,29.50
2018-05-06T17:34:31.997Z,29.30
2018-05-06T17:36:59.730Z,29.40
2018-05-06T17:39:27.406Z,28.90
2018-05-06T17:41:55.075Z,28.70
2018-05-06T17:44:22.770Z,28.50
2018-05-06T17:46:50.456Z,28.30
2018-05-06T17:49:18.145Z,28.10
2018-05-06T17:51:45.883Z,28.40
2018-05-06T17:54:13.575Z,28.40
2018-05-06T17:56:41.310Z,27.70
2018-05-06T17:59:09.074Z,27.40
2018-05-06T18:01:36.926Z,27.00
2018-05-06T18:04:04.614Z,27.00
2018-05-06T18:06:32.390Z,26.70
2018-05-06T18:09:00.078Z,26.70
2018-05-06T18:11:27.745Z,26.50
2018-05-06T18:13:55.422Z,25.90
2018-05-06T18:16:23.866Z,25.50
2018-05-06T18:18:51.599Z,25.50
2018-05-06T18:21:19.211Z,25.40
2018-05-06T18:23:46.900Z,24.90
2018-05-06T18:26:14.571Z,24.60
2018-05-06T18:28:43.126Z,24.10
2018-05-06T18:31:10.886Z,24.10
2018-05-06T18:33:38.830Z,23.60
2018-05-06T18:36:06.557Z,23.10
2018-05-06T18:38:34.270Z,22.50
2018-05-06T18:41:01.960Z,22.20
2018-05-06T18:43:29.639Z,21.90
2018-05-06T18:45:58.099Z,21.30
2018-05-06T18:48:26.510Z,21.30
2018-05-06T18:50:55.027Z,21.00
2018-05-06T18:53:22.700Z,21.00
2018-05-06T18:55:50.384Z,20.80
2018-05-06T18:58:18.051Z,20.60
2018-05-06T19:00:47.311Z,20.30
2018-05-06T19:03:14.996Z,20.30
2018-05-06T19:05:42.678Z,20.10
2018-05-06T19:08:10.354Z,19.90
2018-05-06T19:10:38.051Z,19.70
2018-05-06T19:13:05.736Z,19.60
2018-05-06T19:15:33.509Z,19.40
2018-05-06T19:18:01.262Z,19.20
2018-05-06T19:20:29.032Z,19.10
2018-05-06T19:22:56.726Z,19.00
2018-05-06T19:25:24.470Z,18.90
2018-05-06T19:27:52.149Z,18.80
2018-05-06T19:30:19.831Z,18.70
2018-05-06T19:32:48.375Z,18.50
2018-05-06T19:35:16.067Z,18.50
2018-05-06T19:37:43.746Z,18.40
2018-05-06T19:40:11.461Z,18.30
2018-05-06T19:42:39.142Z,18.20
2018-05-06T19:45:06.891Z,18.20
2018-05-06T19:47:34.654Z,18.10
2018-05-06T19:50:02.348Z,17.90
2018-05-06T19:52:30.026Z,17.80
2018-05-06T19:54:57.769Z,17.70
2018-05-06T19:57:25.436Z,17.70
2018-05-06T19:59:53.129Z,17.60
2018-05-06T20:02:21.576Z,17.50
2018-05-06T20:04:49.251Z,17.50
2018-05-06T20:07:16.984Z,17.40
2018-05-06T20:09:45.399Z,17.30
2018-05-06T20:12:13.108Z,17.20
2018-05-06T20:14:40.793Z,17.20
2018-05-06T20:17:08.491Z,17.10
2018-05-06T20:19:36.212Z,17.10
2018-05-06T20:22:04.199Z,17.00
2018-05-06T20:24:31.950Z,16.90
2018-05-06T20:26:59.645Z,16.90
2018-05-06T20:29:27.379Z,16.90
2018-05-06T20:31:55.065Z,16.80
2018-05-06T20:34:22.829Z,16.70
2018-05-06T20:36:50.596Z,16.70
2018-05-06T20:39:18.249Z,16.60
2018-05-06T20:41:45.971Z,16.60
2018-05-06T20:44:14.385Z,16.50
2018-05-06T20:46:42.169Z,16.50
2018-05-06T20:49:09.911Z,16.50
2018-05-06T20:51:37.683Z,16.40
2018-05-06T20:54:05.355Z,16.40
2018-05-06T20:56:33.826Z,16.40
2018-05-06T20:59:01.495Z,16.30
2018-05-06T21:01:29.178Z,16.30
2018-05-06T21:03:56.872Z,16.20
2018-05-06T21:06:26.208Z,16.10
2018-05-06T21:08:53.883Z,16.10
2018-05-06T21:11:21.664Z,16.10
2018-05-06T21:13:49.302Z,16.10
2018-05-06T21:16:17.256Z,16.00
2018-05-06T21:18:44.854Z,16.00
2018-05-06T21:21:12.598Z,15.90
2018-05-06T21:23:40.258Z,15.90
2018-05-06T21:26:07.939Z,15.80
2018-05-06T21:28:35.660Z,15.80
2018-05-06T21:31:03.294Z,15.70
2018-05-06T21:33:30.972Z,15.70
2018-05-06T21:35:59.439Z,15.70
2018-05-06T21:38:27.112Z,15.60
2018-05-06T21:40:55.543Z,15.60
2018-05-06T21:43:23.312Z,15.60
2018-05-06T21:45:50.904Z,15.60
2018-05-06T21:48:18.596Z,15.60
2018-05-06T21:50:47.031Z,15.50
2018-05-06T21:53:14.723Z,15.50
2018-05-06T21:55:43.165Z,15.40
2018-05-06T21:58:10.847Z,15.40
2018-05-06T22:00:38.524Z,15.40
2018-05-06T22:03:06.239Z,15.30
2018-05-06T22:05:33.998Z,15.30
2018-05-06T22:08:01.775Z,15.40
2018-05-06T22:10:29.541Z,15.30
2018-05-06T22:12:57.228Z,15.30
2018-05-06T22:15:24.894Z,15.30
2018-05-06T22:17:52.580Z,15.30
2018-05-06T22:20:21.103Z,15.20
2018-05-06T22:22:48.792Z,15.10
2018-05-06T22:25:16.487Z,15.10
2018-05-06T22:27:44.938Z,15.10
2018-05-06T22:30:12.610Z,15.10
2018-05-06T22:32:41.067Z,15.10
2018-05-06T22:35:08.819Z,15.00
2018-05-06T22:37:36.614Z,15.00
2018-05-06T22:40:04.294Z,14.90
2018-05-06T22:42:33.482Z,14.80
2018-05-06T22:45:01.241Z,14.90
2018-05-06T22:47:28.906Z,14.80
2018-05-06T22:49:56.583Z,14.80
2018-05-06T22:52:24.277Z,14.80
2018-05-06T22:54:52.720Z,14.80
2018-05-06T22:57:20.406Z,14.80
2018-05-06T22:59:48.855Z,14.70
2018-05-06T23:02:16.543Z,14.70
2018-05-06T23:04:45.192Z,14.70
2018-05-06T23:07:12.907Z,14.70
2018-05-06T23:09:41.348Z,14.60
2018-05-06T23:12:09.057Z,14.60
2018-05-06T23:14:37.495Z,14.40
2018-05-06T23:17:05.261Z,14.40
2018-05-06T23:19:33.011Z,14.40
2018-05-06T23:22:00.771Z,14.30
2018-05-06T23:24:29.345Z,14.20
2018-05-06T23:26:57.022Z,14.20
2018-05-06T23:29:24.798Z,14.20
2018-05-06T23:31:52.382Z,14.10
2018-05-06T23:34:20.140Z,14.00
2018-05-06T23:36:47.790Z,13.90
2018-05-06T23:39:15.480Z,13.80
2018-05-06T23:41:43.148Z,13.80
2018-05-06T23:44:10.985Z,13.70
2018-05-06T23:46:38.613Z,13.60
2018-05-06T23:49:06.294Z,13.50
2018-05-06T23:51:34.830Z,13.50
2018-05-06T23:54:02.527Z,13.40
2018-05-06T23:56:30.287Z,13.40
2018-05-06T23:58:57.886Z,13.40
